Terminal Aerodrome Forecast
Issued by NWS

Home | Current Version | Previous Version | Text Only | Print | Product List | Glossary On
Versions: 1 2 3 4 5 6 7 8 9 10 11 12 13 14 15 16 17 18 19 20
000
FTAK31 PANC 190523
TAFAEN
TAF
PAEN 190523Z 1906/2006 02005KT 4SM BR OVC025
      TEMPO 1906/1909 2SM BR BKN008
     FM190900 02004KT 2SM BR OVC005
     FM191800 05004KT P6SM BKN015
     FM200000 VRB03KT P6SM SCT015 BKN030=

USA.gov is the U.S. government's official web portal to all federal, state and local government web resources and services.